Sorters, Texas
Current Conditions -  °F | °C
As of 3:53 AM on Friday 28 Nov 2014 (Local Time) from KIAH Reporting Station
Clear Clear  
Wind Chill: 41°   Ceiling: Unl
Heat Index: 41°   Visibility: 10mi
Dew Point: 39°   Wind: 0mph
Humidity: 93%   Direction: NA
Pressure: 30.38"   Gusts: NA
Location:  30.1192°N, 95.2824°W
Report Text: KIAH 280953Z 00000KT 10SM CLR 05/04 A3038 RMK AO2 SLP287 T00500039
Loading
Personal Weather Stations






























Interactive Weather Map New forecast layout! Learn more

10-Day Weather Forecast

Advertisements
Track Severe Weather on mobile